sensor_id;sensor_type;location;lat;lon;timestamp;pressure;altitude;pressure_sealevel;temperature;humidity
35224;BME280;21367;51.930;8.112;2023-05-03T00:04:07;102222.06;;;6.30;80.28
35224;BME280;21367;51.930;8.112;2023-05-03T00:09:11;102220.75;;;6.25;80.21
35224;BME280;21367;51.930;8.112;2023-05-03T00:14:18;102217.31;;;6.14;81.00
35224;BME280;21367;51.930;8.112;2023-05-03T00:19:22;102233.53;;;6.15;80.46
35224;BME280;21367;51.930;8.112;2023-05-03T00:24:26;102234.94;;;6.11;80.93
35224;BME280;21367;51.930;8.112;2023-05-03T00:29:33;102221.91;;;6.08;82.08
35224;BME280;21367;51.930;8.112;2023-05-03T00:34:37;102227.75;;;6.07;81.54
35224;BME280;21367;51.930;8.112;2023-05-03T00:39:41;102212.19;;;5.94;81.76
35224;BME280;21367;51.930;8.112;2023-05-03T00:44:47;102211.00;;;5.80;81.99
35224;BME280;21367;51.930;8.112;2023-05-03T00:49:50;102223.34;;;5.86;81.64
35224;BME280;21367;51.930;8.112;2023-05-03T00:54:55;102229.72;;;5.70;82.16
35224;BME280;21367;51.930;8.112;2023-05-03T01:00:03;102232.63;;;5.65;82.58
35224;BME280;21367;51.930;8.112;2023-05-03T01:05:09;102231.69;;;5.54;83.47
35224;BME280;21367;51.930;8.112;2023-05-03T01:10:21;102232.53;;;5.44;82.97
35224;BME280;21367;51.930;8.112;2023-05-03T01:15:40;102225.63;;;5.33;83.43
35224;BME280;21367;51.930;8.112;2023-05-03T01:20:48;102237.72;;;5.36;83.24
35224;BME280;21367;51.930;8.112;2023-05-03T01:25:55;102235.56;;;5.30;83.81
35224;BME280;21367;51.930;8.112;2023-05-03T01:30:59;102235.28;;;5.27;83.89
35224;BME280;21367;51.930;8.112;2023-05-03T01:36:09;102234.13;;;5.23;83.78
35224;BME280;21367;51.930;8.112;2023-05-03T01:41:18;102234.63;;;5.29;83.16
35224;BME280;21367;51.930;8.112;2023-05-03T01:46:24;102237.75;;;5.17;83.89
35224;BME280;21367;51.930;8.112;2023-05-03T01:51:28;102239.03;;;5.12;84.43
35224;BME280;21367;51.930;8.112;2023-05-03T01:56:35;102250.88;;;5.11;84.42
35224;BME280;21367;51.930;8.112;2023-05-03T02:01:39;102265.09;;;4.99;84.71
35224;BME280;21367;51.930;8.112;2023-05-03T02:06:42;102258.16;;;4.98;85.07
35224;BME280;21367;51.930;8.112;2023-05-03T02:11:49;102270.09;;;4.88;86.01
35224;BME280;21367;51.930;8.112;2023-05-03T02:16:53;102263.38;;;4.89;86.36
35224;BME280;21367;51.930;8.112;2023-05-03T02:21:57;102259.56;;;4.75;86.06
35224;BME280;21367;51.930;8.112;2023-05-03T02:27:04;102258.78;;;4.76;86.15
35224;BME280;21367;51.930;8.112;2023-05-03T02:32:11;102269.63;;;4.74;86.41
35224;BME280;21367;51.930;8.112;2023-05-03T02:37:16;102274.13;;;4.49;87.34
35224;BME280;21367;51.930;8.112;2023-05-03T02:42:23;102276.69;;;4.49;87.09
35224;BME280;21367;51.930;8.112;2023-05-03T02:47:28;102274.88;;;4.48;86.93
35224;BME280;21367;51.930;8.112;2023-05-03T02:52:33;102287.94;;;4.42;87.46
35224;BME280;21367;51.930;8.112;2023-05-03T02:57:39;102285.84;;;4.38;87.80
35224;BME280;21367;51.930;8.112;2023-05-03T03:02:44;102282.28;;;4.36;86.84
35224;BME280;21367;51.930;8.112;2023-05-03T03:07:48;102281.75;;;4.21;87.20
35224;BME280;21367;51.930;8.112;2023-05-03T03:12:56;102280.06;;;4.30;87.85
35224;BME280;21367;51.930;8.112;2023-05-03T03:18:06;102269.44;;;4.26;87.63
35224;BME280;21367;51.930;8.112;2023-05-03T03:23:10;102269.81;;;4.20;87.81
35224;BME280;21367;51.930;8.112;2023-05-03T03:28:18;102262.81;;;4.09;87.97
35224;BME280;21367;51.930;8.112;2023-05-03T03:33:23;102265.06;;;4.06;88.24
35224;BME280;21367;51.930;8.112;2023-05-03T03:38:34;102260.41;;;4.10;88.29
35224;BME280;21367;51.930;8.112;2023-05-03T03:43:44;102262.25;;;4.03;87.89
35224;BME280;21367;51.930;8.112;2023-05-03T03:48:52;102255.22;;;4.00;87.74
35224;BME280;21367;51.930;8.112;2023-05-03T03:53:58;102262.72;;;3.99;87.47
35224;BME280;21367;51.930;8.112;2023-05-03T03:59:10;102262.59;;;3.88;87.64
35224;BME280;21367;51.930;8.112;2023-05-03T04:04:15;102256.78;;;3.81;87.73
35224;BME280;21367;51.930;8.112;2023-05-03T04:09:19;102262.94;;;3.83;87.16
35224;BME280;21367;51.930;8.112;2023-05-03T04:14:26;102265.78;;;3.86;87.55
35224;BME280;21367;51.930;8.112;2023-05-03T04:19:29;102271.16;;;3.80;87.99
35224;BME280;21367;51.930;8.112;2023-05-03T04:24:33;102266.56;;;3.76;88.96
35224;BME280;21367;51.930;8.112;2023-05-03T04:29:43;102277.69;;;3.96;88.83
35224;BME280;21367;51.930;8.112;2023-05-03T04:34:49;102271.38;;;4.01;88.48
35224;BME280;21367;51.930;8.112;2023-05-03T04:39:55;102269.16;;;4.23;87.69
35224;BME280;21367;51.930;8.112;2023-05-03T04:45:03;102261.88;;;4.17;87.53
35224;BME280;21367;51.930;8.112;2023-05-03T04:50:10;102259.34;;;4.17;87.68
35224;BME280;21367;51.930;8.112;2023-05-03T04:55:17;102256.00;;;4.27;87.06
35224;BME280;21367;51.930;8.112;2023-05-03T05:00:24;102270.63;;;4.29;86.76
35224;BME280;21367;51.930;8.112;2023-05-03T05:05:34;102269.13;;;4.31;87.33
35224;BME280;21367;51.930;8.112;2023-05-03T05:10:40;102280.94;;;4.39;89.26
35224;BME280;21367;51.930;8.112;2023-05-03T05:15:51;102281.28;;;4.53;89.95
35224;BME280;21367;51.930;8.112;2023-05-03T05:20:55;102292.06;;;4.50;90.00
35224;BME280;21367;51.930;8.112;2023-05-03T05:25:59;102290.91;;;4.19;90.22
35224;BME280;21367;51.930;8.112;2023-05-03T05:31:08;102291.59;;;4.54;92.21
35224;BME280;21367;51.930;8.112;2023-05-03T05:36:13;102298.59;;;5.03;89.88
35224;BME280;21367;51.930;8.112;2023-05-03T05:41:18;102305.28;;;5.12;88.37
35224;BME280;21367;51.930;8.112;2023-05-03T05:46:24;102305.13;;;5.29;87.89
35224;BME280;21367;51.930;8.112;2023-05-03T05:51:29;102311.88;;;5.09;88.96
35224;BME280;21367;51.930;8.112;2023-05-03T05:56:33;102317.88;;;5.29;89.26
35224;BME280;21367;51.930;8.112;2023-05-03T06:01:40;102327.44;;;5.31;88.32
35224;BME280;21367;51.930;8.112;2023-05-03T06:06:48;102332.28;;;5.57;87.25
35224;BME280;21367;51.930;8.112;2023-05-03T06:11:52;102340.28;;;5.71;85.87
35224;BME280;21367;51.930;8.112;2023-05-03T06:17:00;102340.03;;;5.68;84.74
35224;BME280;21367;51.930;8.112;2023-05-03T06:22:05;102350.03;;;5.85;84.84
35224;BME280;21367;51.930;8.112;2023-05-03T06:27:09;102351.31;;;5.80;85.80
35224;BME280;21367;51.930;8.112;2023-05-03T06:32:17;102347.50;;;6.14;86.60
35224;BME280;21367;51.930;8.112;2023-05-03T06:37:21;102354.72;;;5.70;86.70
35224;BME280;21367;51.930;8.112;2023-05-03T06:42:25;102348.22;;;6.03;85.95
35224;BME280;21367;51.930;8.112;2023-05-03T06:48:04;102353.91;;;6.30;82.02
35224;BME280;21367;51.930;8.112;2023-05-03T06:53:09;102351.13;;;6.47;80.55
35224;BME280;21367;51.930;8.112;2023-05-03T06:58:13;102345.41;;;6.49;81.11
35224;BME280;21367;51.930;8.112;2023-05-03T07:03:19;102346.94;;;6.99;80.52
35224;BME280;21367;51.930;8.112;2023-05-03T07:08:23;102354.47;;;7.07;80.27
35224;BME280;21367;51.930;8.112;2023-05-03T07:13:27;102347.97;;;7.21;79.17
35224;BME280;21367;51.930;8.112;2023-05-03T07:18:34;102341.19;;;7.64;77.78
35224;BME280;21367;51.930;8.112;2023-05-03T07:23:38;102335.84;;;7.83;76.41
35224;BME280;21367;51.930;8.112;2023-05-03T07:28:41;102331.69;;;7.73;75.79
35224;BME280;21367;51.930;8.112;2023-05-03T07:33:48;102329.06;;;8.16;75.45
35224;BME280;21367;51.930;8.112;2023-05-03T07:38:52;102329.56;;;8.11;74.57
35224;BME280;21367;51.930;8.112;2023-05-03T07:43:56;102313.91;;;8.63;74.46
35224;BME280;21367;51.930;8.112;2023-05-03T07:49:03;102300.22;;;8.74;72.84
35224;BME280;21367;51.930;8.112;2023-05-03T07:54:07;102308.19;;;9.24;71.81
35224;BME280;21367;51.930;8.112;2023-05-03T07:59:11;102303.59;;;8.85;70.33
35224;BME280;21367;51.930;8.112;2023-05-03T08:04:18;102298.28;;;9.40;69.66
35224;BME280;21367;51.930;8.112;2023-05-03T08:09:21;102300.81;;;8.82;69.81
35224;BME280;21367;51.930;8.112;2023-05-03T08:14:25;102294.81;;;9.40;68.37
35224;BME280;21367;51.930;8.112;2023-05-03T08:19:32;102292.59;;;9.93;65.82
35224;BME280;21367;51.930;8.112;2023-05-03T08:24:36;102290.69;;;9.07;67.29
35224;BME280;21367;51.930;8.112;2023-05-03T08:29:40;102301.72;;;9.29;67.60
35224;BME280;21367;51.930;8.112;2023-05-03T08:34:46;102287.59;;;10.31;64.27
35224;BME280;21367;51.930;8.112;2023-05-03T08:39:49;102293.41;;;9.80;63.07
35224;BME280;21367;51.930;8.112;2023-05-03T08:44:53;102290.41;;;9.74;65.17
35224;BME280;21367;51.930;8.112;2023-05-03T08:50:02;102289.84;;;10.65;66.27
35224;BME280;21367;51.930;8.112;2023-05-03T08:55:07;102279.34;;;11.00;63.49
35224;BME280;21367;51.930;8.112;2023-05-03T09:00:12;102276.78;;;11.14;60.83
35224;BME280;21367;51.930;8.112;2023-05-03T09:05:34;102283.00;;;11.30;60.24
35224;BME280;21367;51.930;8.112;2023-05-03T09:10:41;102287.19;;;11.28;59.48
35224;BME280;21367;51.930;8.112;2023-05-03T09:15:52;102288.44;;;11.48;56.88
35224;BME280;21367;51.930;8.112;2023-05-03T09:21:00;102279.63;;;11.18;61.43
35224;BME280;21367;51.930;8.112;2023-05-03T09:26:04;102280.44;;;11.30;58.61
35224;BME280;21367;51.930;8.112;2023-05-03T09:31:08;102290.66;;;11.97;57.16
35224;BME280;21367;51.930;8.112;2023-05-03T09:36:14;102276.78;;;11.53;58.45
35224;BME280;21367;51.930;8.112;2023-05-03T09:41:25;102280.94;;;11.38;61.71
35224;BME280;21367;51.930;8.112;2023-05-03T09:46:29;102269.16;;;12.24;59.47
35224;BME280;21367;51.930;8.112;2023-05-03T09:51:36;102250.44;;;13.47;55.57
35224;BME280;21367;51.930;8.112;2023-05-03T09:56:42;102247.19;;;12.16;59.17
35224;BME280;21367;51.930;8.112;2023-05-03T10:01:49;102246.28;;;13.82;54.18
35224;BME280;21367;51.930;8.112;2023-05-03T10:07:03;102242.38;;;13.88;55.06
35224;BME280;21367;51.930;8.112;2023-05-03T10:12:13;102245.19;;;14.09;54.51
35224;BME280;21367;51.930;8.112;2023-05-03T10:17:21;102240.66;;;14.72;53.74
35224;BME280;21367;51.930;8.112;2023-05-03T10:22:29;102235.78;;;13.62;56.51
35224;BME280;21367;51.930;8.112;2023-05-03T10:27:36;102237.56;;;14.97;54.32
35224;BME280;21367;51.930;8.112;2023-05-03T10:32:43;102229.31;;;14.36;54.94
35224;BME280;21367;51.930;8.112;2023-05-03T10:37:50;102210.22;;;15.20;50.08
35224;BME280;21367;51.930;8.112;2023-05-03T10:42:56;102213.88;;;15.81;54.32
35224;BME280;21367;51.930;8.112;2023-05-03T10:48:15;102212.75;;;15.38;50.43
35224;BME280;21367;51.930;8.112;2023-05-03T10:53:43;102209.78;;;17.53;46.06
35224;BME280;21367;51.930;8.112;2023-05-03T10:58:49;102217.75;;;18.04;46.21
35224;BME280;21367;51.930;8.112;2023-05-03T11:04:01;102205.34;;;17.51;47.49
35224;BME280;21367;51.930;8.112;2023-05-03T11:09:11;102192.31;;;17.73;48.32
35224;BME280;21367;51.930;8.112;2023-05-03T11:14:15;102182.75;;;16.61;48.22
35224;BME280;21367;51.930;8.112;2023-05-03T11:19:19;102177.06;;;17.36;46.56
35224;BME280;21367;51.930;8.112;2023-05-03T11:24:26;102180.78;;;17.67;46.29
35224;BME280;21367;51.930;8.112;2023-05-03T11:29:30;102169.06;;;16.65;47.66
35224;BME280;21367;51.930;8.112;2023-05-03T11:34:34;102159.66;;;15.48;48.97
35224;BME280;21367;51.930;8.112;2023-05-03T11:39:42;102166.53;;;16.25;49.70
35224;BME280;21367;51.930;8.112;2023-05-03T11:44:47;102170.91;;;17.56;46.56
35224;BME280;21367;51.930;8.112;2023-05-03T11:49:51;102157.94;;;19.40;42.80
35224;BME280;21367;51.930;8.112;2023-05-03T11:54:59;102163.03;;;18.54;42.75
35224;BME280;21367;51.930;8.112;2023-05-03T12:00:11;102160.56;;;18.06;45.04
35224;BME280;21367;51.930;8.112;2023-05-03T12:05:17;102167.38;;;19.08;41.18
35224;BME280;21367;51.930;8.112;2023-05-03T12:10:30;102155.53;;;20.09;41.40
35224;BME280;21367;51.930;8.112;2023-05-03T12:15:35;102149.31;;;19.73;41.94
35224;BME280;21367;51.930;8.112;2023-05-03T12:20:40;102146.09;;;19.81;43.53
35224;BME280;21367;51.930;8.112;2023-05-03T12:25:48;102145.19;;;17.88;44.57
35224;BME280;21367;51.930;8.112;2023-05-03T12:30:53;102145.50;;;18.48;46.41
35224;BME280;21367;51.930;8.112;2023-05-03T12:35:56;102130.94;;;20.71;41.41
35224;BME280;21367;51.930;8.112;2023-05-03T12:41:04;102135.28;;;21.96;39.25
35224;BME280;21367;51.930;8.112;2023-05-03T12:46:08;102132.91;;;20.10;42.22
35224;BME280;21367;51.930;8.112;2023-05-03T12:51:12;102125.47;;;20.60;42.25
35224;BME280;21367;51.930;8.112;2023-05-03T12:56:19;102119.97;;;21.26;39.85
35224;BME280;21367;51.930;8.112;2023-05-03T13:01:23;102126.84;;;19.48;41.74
35224;BME280;21367;51.930;8.112;2023-05-03T13:06:28;102112.25;;;20.19;43.03
35224;BME280;21367;51.930;8.112;2023-05-03T13:11:35;102115.16;;;19.05;42.00
35224;BME280;21367;51.930;8.112;2023-05-03T13:16:39;102096.84;;;21.04;39.01
35224;BME280;21367;51.930;8.112;2023-05-03T13:21:46;102088.19;;;20.31;40.03
35224;BME280;21367;51.930;8.112;2023-05-03T13:26:55;102088.94;;;20.27;39.66
35224;BME280;21367;51.930;8.112;2023-05-03T13:31:59;102077.66;;;20.63;37.16
35224;BME280;21367;51.930;8.112;2023-05-03T13:37:03;102060.75;;;21.30;38.02
35224;BME280;21367;51.930;8.112;2023-05-03T13:42:09;102055.44;;;22.79;36.96
35224;BME280;21367;51.930;8.112;2023-05-03T13:47:13;102065.75;;;19.70;39.59
35224;BME280;21367;51.930;8.112;2023-05-03T13:52:17;102054.28;;;20.69;39.98
35224;BME280;21367;51.930;8.112;2023-05-03T13:57:24;102042.25;;;22.74;37.12
35224;BME280;21367;51.930;8.112;2023-05-03T14:02:28;102028.03;;;22.01;38.63
35224;BME280;21367;51.930;8.112;2023-05-03T14:07:34;102031.28;;;19.50;43.41
35224;BME280;21367;51.930;8.112;2023-05-03T14:12:41;102024.72;;;19.32;40.88
35224;BME280;21367;51.930;8.112;2023-05-03T14:17:46;102010.00;;;20.76;39.18
35224;BME280;21367;51.930;8.112;2023-05-03T14:22:49;102004.00;;;19.69;40.52
35224;BME280;21367;51.930;8.112;2023-05-03T14:27:56;101999.78;;;18.80;41.35
35224;BME280;21367;51.930;8.112;2023-05-03T14:32:59;102001.34;;;19.35;40.43
35224;BME280;21367;51.930;8.112;2023-05-03T14:38:03;101993.25;;;20.67;41.71
35224;BME280;21367;51.930;8.112;2023-05-03T14:43:10;101982.09;;;19.98;40.68
35224;BME280;21367;51.930;8.112;2023-05-03T14:48:15;101971.53;;;20.69;38.79
35224;BME280;21367;51.930;8.112;2023-05-03T14:53:19;101956.91;;;21.73;39.67
35224;BME280;21367;51.930;8.112;2023-05-03T14:58:25;101960.34;;;19.63;40.38
35224;BME280;21367;51.930;8.112;2023-05-03T15:03:29;101953.94;;;22.06;37.84
35224;BME280;21367;51.930;8.112;2023-05-03T15:08:33;101957.06;;;19.70;40.81
35224;BME280;21367;51.930;8.112;2023-05-03T15:13:41;101943.16;;;21.85;38.02
35224;BME280;21367;51.930;8.112;2023-05-03T15:18:45;101944.19;;;21.41;39.61
35224;BME280;21367;51.930;8.112;2023-05-03T15:23:49;101944.31;;;19.81;42.08
35224;BME280;21367;51.930;8.112;2023-05-03T15:28:56;101947.63;;;21.92;38.67
35224;BME280;21367;51.930;8.112;2023-05-03T15:34:00;101946.03;;;21.48;37.90
35224;BME280;21367;51.930;8.112;2023-05-03T15:39:04;101945.13;;;22.63;35.75
35224;BME280;21367;51.930;8.112;2023-05-03T15:44:11;101937.00;;;22.44;36.63
35224;BME280;21367;51.930;8.112;2023-05-03T15:49:15;101940.75;;;20.54;38.85
35224;BME280;21367;51.930;8.112;2023-05-03T15:54:19;101931.16;;;21.44;36.66
35224;BME280;21367;51.930;8.112;2023-05-03T15:59:26;101924.78;;;23.17;36.34
35224;BME280;21367;51.930;8.112;2023-05-03T16:04:29;101925.72;;;22.49;37.76
35224;BME280;21367;51.930;8.112;2023-05-03T16:09:33;101919.41;;;21.74;38.30
35224;BME280;21367;51.930;8.112;2023-05-03T16:14:40;101921.91;;;22.24;37.30
35224;BME280;21367;51.930;8.112;2023-05-03T16:19:44;101917.47;;;22.18;36.49
35224;BME280;21367;51.930;8.112;2023-05-03T16:24:47;101923.41;;;21.51;37.28
35224;BME280;21367;51.930;8.112;2023-05-03T16:29:56;101928.91;;;22.24;37.97
35224;BME280;21367;51.930;8.112;2023-05-03T16:35:01;101936.31;;;21.96;37.21
35224;BME280;21367;51.930;8.112;2023-05-03T16:40:06;101926.00;;;20.56;38.55
35224;BME280;21367;51.930;8.112;2023-05-03T16:45:13;101919.63;;;23.28;35.96
35224;BME280;21367;51.930;8.112;2023-05-03T16:50:19;101911.38;;;22.93;36.09
35224;BME280;21367;51.930;8.112;2023-05-03T16:55:23;101908.78;;;22.20;37.43
35224;BME280;21367;51.930;8.112;2023-05-03T17:00:29;101909.34;;;22.69;38.57
35224;BME280;21367;51.930;8.112;2023-05-03T17:05:33;101903.69;;;23.08;36.26
35224;BME280;21367;51.930;8.112;2023-05-03T17:10:37;101900.69;;;21.48;37.50
35224;BME280;21367;51.930;8.112;2023-05-03T17:15:44;101900.09;;;21.14;38.42
35224;BME280;21367;51.930;8.112;2023-05-03T17:20:48;101904.09;;;19.73;41.69
35224;BME280;21367;51.930;8.112;2023-05-03T17:25:55;101896.38;;;18.76;42.40
35224;BME280;21367;51.930;8.112;2023-05-03T17:31:02;101889.19;;;18.39;43.64
35224;BME280;21367;51.930;8.112;2023-05-03T17:36:06;101894.97;;;17.73;44.81
35224;BME280;21367;51.930;8.112;2023-05-03T17:41:10;101894.16;;;16.96;47.12
35224;BME280;21367;51.930;8.112;2023-05-03T17:46:16;101894.75;;;17.14;45.44
35224;BME280;21367;51.930;8.112;2023-05-03T17:51:20;101898.72;;;16.32;47.46
35224;BME280;21367;51.930;8.112;2023-05-03T17:56:24;101895.50;;;16.15;47.76
35224;BME280;21367;51.930;8.112;2023-05-03T18:01:31;101889.88;;;15.82;49.69
35224;BME280;21367;51.930;8.112;2023-05-03T18:06:35;101884.47;;;16.21;48.74
35224;BME280;21367;51.930;8.112;2023-05-03T18:11:39;101883.75;;;16.03;48.94
35224;BME280;21367;51.930;8.112;2023-05-03T18:16:47;101887.53;;;15.46;50.92
35224;BME280;21367;51.930;8.112;2023-05-03T18:21:51;101893.72;;;15.08;52.20
35224;BME280;21367;51.930;8.112;2023-05-03T18:26:55;101891.88;;;15.06;52.15
35224;BME280;21367;51.930;8.112;2023-05-03T18:32:02;101889.06;;;14.43;53.86
35224;BME280;21367;51.930;8.112;2023-05-03T18:37:05;101887.66;;;14.12;55.01
35224;BME280;21367;51.930;8.112;2023-05-03T18:42:09;101891.50;;;14.20;54.58
35224;BME280;21367;51.930;8.112;2023-05-03T18:47:18;101879.44;;;13.83;56.50
35224;BME280;21367;51.930;8.112;2023-05-03T18:52:21;101876.69;;;13.80;56.31
35224;BME280;21367;51.930;8.112;2023-05-03T18:57:25;101876.78;;;13.64;56.85
35224;BME280;21367;51.930;8.112;2023-05-03T19:02:32;101875.38;;;13.53;56.99
35224;BME280;21367;51.930;8.112;2023-05-03T19:07:35;101873.63;;;13.70;57.21
35224;BME280;21367;51.930;8.112;2023-05-03T19:12:45;101878.06;;;13.38;57.96
35224;BME280;21367;51.930;8.112;2023-05-03T19:17:56;101887.06;;;13.12;59.24
35224;BME280;21367;51.930;8.112;2023-05-03T19:23:00;101888.31;;;13.02;59.07
35224;BME280;21367;51.930;8.112;2023-05-03T19:28:04;101893.41;;;13.01;58.33
35224;BME280;21367;51.930;8.112;2023-05-03T19:33:10;101892.94;;;12.91;59.65
35224;BME280;21367;51.930;8.112;2023-05-03T19:38:18;101891.31;;;12.61;60.83
35224;BME280;21367;51.930;8.112;2023-05-03T19:43:24;101901.38;;;12.56;60.91
35224;BME280;21367;51.930;8.112;2023-05-03T19:48:31;101899.13;;;12.30;61.46
35224;BME280;21367;51.930;8.112;2023-05-03T19:53:35;101903.63;;;12.34;61.36
35224;BME280;21367;51.930;8.112;2023-05-03T19:58:39;101898.41;;;12.01;62.02
35224;BME280;21367;51.930;8.112;2023-05-03T20:03:46;101890.63;;;11.40;63.14
35224;BME280;21367;51.930;8.112;2023-05-03T20:08:52;101890.47;;;11.52;63.24
35224;BME280;21367;51.930;8.112;2023-05-03T20:13:57;101891.72;;;11.29;62.90
35224;BME280;21367;51.930;8.112;2023-05-03T20:19:06;101901.38;;;11.63;62.46
35224;BME280;21367;51.930;8.112;2023-05-03T20:24:09;101897.75;;;11.29;63.22
35224;BME280;21367;51.930;8.112;2023-05-03T20:29:14;101892.97;;;11.35;63.19
35224;BME280;21367;51.930;8.112;2023-05-03T20:34:20;101890.66;;;11.10;63.67
35224;BME280;21367;51.930;8.112;2023-05-03T20:39:24;101893.13;;;11.53;62.63
35224;BME280;21367;51.930;8.112;2023-05-03T20:44:28;101892.13;;;10.92;63.17
35224;BME280;21367;51.930;8.112;2023-05-03T20:49:34;101895.09;;;10.70;63.27
35224;BME280;21367;51.930;8.112;2023-05-03T20:54:39;101891.41;;;10.95;64.00
35224;BME280;21367;51.930;8.112;2023-05-03T20:59:45;101887.88;;;11.07;63.38
35224;BME280;21367;51.930;8.112;2023-05-03T21:04:51;101880.69;;;11.02;63.70
35224;BME280;21367;51.930;8.112;2023-05-03T21:09:55;101877.72;;;10.81;64.24
35224;BME280;21367;51.930;8.112;2023-05-03T21:14:59;101874.44;;;10.83;64.38
35224;BME280;21367;51.930;8.112;2023-05-03T21:20:07;101874.53;;;10.70;64.55
35224;BME280;21367;51.930;8.112;2023-05-03T21:25:11;101878.22;;;10.60;64.95
35224;BME280;21367;51.930;8.112;2023-05-03T21:30:15;101883.38;;;10.60;64.81
35224;BME280;21367;51.930;8.112;2023-05-03T21:35:23;101875.22;;;10.39;65.40
35224;BME280;21367;51.930;8.112;2023-05-03T21:40:27;101873.88;;;10.31;65.87
35224;BME280;21367;51.930;8.112;2023-05-03T21:45:31;101879.50;;;10.26;66.50
35224;BME280;21367;51.930;8.112;2023-05-03T21:50:39;101872.00;;;10.29;66.24
35224;BME280;21367;51.930;8.112;2023-05-03T21:55:44;101873.97;;;10.19;66.12
35224;BME280;21367;51.930;8.112;2023-05-03T22:00:48;101871.91;;;10.14;66.65
35224;BME280;21367;51.930;8.112;2023-05-03T22:05:55;101863.34;;;10.00;67.02
35224;BME280;21367;51.930;8.112;2023-05-03T22:10:59;101856.53;;;9.87;67.36
35224;BME280;21367;51.930;8.112;2023-05-03T22:16:04;101854.97;;;9.76;67.78
35224;BME280;21367;51.930;8.112;2023-05-03T22:21:11;101858.31;;;9.62;68.49
35224;BME280;21367;51.930;8.112;2023-05-03T22:26:15;101854.66;;;9.58;69.11
35224;BME280;21367;51.930;8.112;2023-05-03T22:31:19;101859.19;;;9.49;69.94
35224;BME280;21367;51.930;8.112;2023-05-03T22:36:25;101840.63;;;9.40;70.22
35224;BME280;21367;51.930;8.112;2023-05-03T22:41:29;101844.59;;;9.35;70.46
35224;BME280;21367;51.930;8.112;2023-05-03T22:46:33;101843.88;;;9.24;70.45
35224;BME280;21367;51.930;8.112;2023-05-03T22:51:40;101850.22;;;9.16;70.86
35224;BME280;21367;51.930;8.112;2023-05-03T22:56:43;101851.09;;;9.16;70.99
35224;BME280;21367;51.930;8.112;2023-05-03T23:01:47;101842.59;;;9.04;71.27
35224;BME280;21367;51.930;8.112;2023-05-03T23:06:55;101835.97;;;8.94;71.47
35224;BME280;21367;51.930;8.112;2023-05-03T23:12:00;101838.50;;;8.81;72.67
35224;BME280;21367;51.930;8.112;2023-05-03T23:17:04;101843.75;;;8.71;73.62
35224;BME280;21367;51.930;8.112;2023-05-03T23:22:11;101834.84;;;8.77;73.11
35224;BME280;21367;51.930;8.112;2023-05-03T23:27:14;101824.22;;;8.60;73.78
35224;BME280;21367;51.930;8.112;2023-05-03T23:32:18;101817.16;;;8.44;73.45
35224;BME280;21367;51.930;8.112;2023-05-03T23:37:25;101819.06;;;8.46;73.17
35224;BME280;21367;51.930;8.112;2023-05-03T23:42:29;101822.44;;;8.58;72.92
35224;BME280;21367;51.930;8.112;2023-05-03T23:47:33;101817.81;;;8.53;72.69
35224;BME280;21367;51.930;8.112;2023-05-03T23:52:40;101811.66;;;8.51;72.45
35224;BME280;21367;51.930;8.112;2023-05-03T23:57:45;101805.00;;;8.53;72.52
